Create Custom Reports and Graphics: Custom Report

Latest 15 Minute Observations

Map

15 Minute Data

Latest Observation

38 Stations

15 Minute Data | America/Los_Angeles
as of 7/19/24 11:42 PM PDT
Station Date Time Temp (°F) RH (%) Dew Pt (°F) Wind Spd (mph) Wind Dir (°) Wind Gust (mph) Latest Rain (In) Daily Rain (In) Daily Min Temp (°F) Daily Max Temp (°F) Daily Max Wind (mph)
Upper Lake 7/19/24 2330 70.9   4.9 45   12 48.6   1.6 1.3 NNW | 334 3.6   0.3 0.00 0.00 50.7   0.2 100.6   2.6 19.0   1.2
Scotts Valley 7/19/24 2330 62.6   4.3 58   4 47.8   2.3 0.0 WSW | 248 0.8   1.1 0.00 0.00 46.4   0.5 100.4   1.8 19.7   2.9
Scotts Valley-South (Bella Vista) 7/19/24 2330 65.8   3.8 55   0 48.9   3.4 0.5 SW | 218 2.7   1.6 0.00 0.00 50.7   0.9 97.8   1.4 15.8   0.1
Kelseyville 7/19/24 2330 70.1   4.9 46   5 48.5   1.6 0.8 S | 174 2.2   0.9 0.00 0.00 51.6   0.7 99.2   1.5 15.8   3.5
Kelseyville Remote 7/19/24 2330 72.2   4.8 35   1 43.4   3.4 - - - 0.00 0.00 53.5   0.2 101.1   2.0 -
Kelseyville (Clark Drive) 7/19/24 2330 66.4   3.7 - - - - - 0.00 0.00 49.7   0.9 101.3   1.6 -
Kelsey Bench (Oaklea) 7/19/24 2330 73.6   5.7 33   5 42.8   1.1 4.8 S | 176 6.0   0.5 0.00 0.00 59.1   1.2 98.4   1.5 15.7   0.1
Smith Lane (Kelseyville-South) 7/19/24 2330 67.5   4.4 49   2 47.5   2.8 1.4 ESE | 120 3.2   0.6 0.00 0.00 51.6   0.3 100.9   1.6 15.5   0.0
Bell Hill-West 7/19/24 2330 67.6   0.5 55   5 50.9   2.9 2.5 SSW | 197 4.4   0.7 0.00 0.00 54.8   0.9 98.4   2.3 15.5   0.3
Wight Way (Adobe Creek) 7/19/24 2300 65.5   3.7 51   3 46.7   2.1 1.5 SE | 127 2.8   0.1 0.00 0.00 50.9   1.3 100.8   1.3 15.3   0.2
High Valley Ridgeline (Brassfield) 7/19/24 2330 76.5   3.6 36   4 47.3   0.6 7.8 W | 266 11.1   1.9 0.00 0.00 70.8   2.9 96.7   2.4 21.0   1.4
Ridgeline Top (Brassfield) 7/19/24 2330 76.2   2.1 - - - - - - - 70.2   4.2 98.7   1.5 -
Ridgeline Low (Brassfield) 7/19/24 2330 77.6   2.0 - - - - - - - 64.8   1.0 96.0   1.4 -
Long Valley (Shannon) 7/19/24 2330 64.4   0.1 - - 1.1 S | 190 2.7   0.5 0.00 0.00 50.5   1.2 103.0   1.5 18.0   2.3
High Valley Winery 7/19/24 2330 69.5   8.0 45   13 47.1   1.8 2.7 NW | 318 4.3   14.2 0.00 0.00 51.1   0.7 99.7   2.1 21.8   0.6
Round Mtn Rd. 7/19/24 1745 94.6   2.1 - - - - - - - 57.3   1.8 99.0   1.7 -
Circle O 7/19/24 2330 65.8   1.4 - - - - - - - 54.6   0.7 96.9   1.6 -
Robertsbridge Vineyards 7/19/24 2330 63.4   3.3 53   2 46.1   2.2 - - - - - 53.3   2.0 101.8   1.2 -
Urgency Vineyard 7/19/24 2330 77.0   2.1 29   2 42.5   0.5 4.0 SSW | 211 8.0   0.4 0.00 0.00 58.6   3.9 98.9   1.6 12.8   0.0
Red Hills (Beckstoffer) 7/19/24 2330 80.7   3.3 26   3 42.4   0.0 - - - 0.00 0.00 56.4   3.1 99.5   1.8 -
Winters (Shannon) 7/19/24 2330 79.2   1.3 25   0 40.6   1.1 3.5 WSW | 247 10.7   4.2 0.00 0.00 52.8   3.7 96.9   1.6 15.9   1.8
Secret Pond (Shannon) 7/19/24 2330 80.4   2.5 25   1 40.9   1.5 7.1 NW | 306 12.7   2.6 0.00 0.00 59.8   4.2 97.0   2.6 17.2   1.4
Rolling Knolls (Shannon) 7/19/24 2330 75.9   3.6 35   9 46.1   4.6 1.3 ESE | 107 3.5   3.4 0.00 0.00 56.7   5.3 99.7   0.8 13.4   1.4
Lower Lake 7/19/24 2330 80.5   4.3 27   5 43.8   0.9 2.7 NE | 48 6.1   1.5 0.00 0.00 65.5   5.4 100.1   1.7 17.0   2.6
Adamson Ranch 7/19/24 2330 71.9   0.2 42   6 47.3   3.9 0.0 N | 0 0.0   3.1 0.00 0.00 56.0   3.8 103.0   2.3 14.2   2.8
Middletown (Diamond D) 7/19/24 2330 70.2   3.7 45   15 48.0   4.5 1.2 N | 355 5.3   2.8 0.00 0.00 57.1   4.7 102.7   4.0 16.8   0.7
Middletown-West (Atlas VM) 7/19/24 2330 74.2   0.5 33   1 43.7   0.6 4.0 SSW | 192 9.7   0.4 0.00 0.00 53.9   4.8 105.9   5.0 21.7   2.5
Middletown-South 7/19/24 2330 67.2   0.5 44   0 44.8   0.1 1.6 S | 182 3.1   0.5 0.00 0.00 57.0   4.2 103.8   5.5 20.2   3.3
Jim Davis (Langtry) 7/19/24 2330 79.5   0.3 31   1 46.7   0.6 1.3 WNW | 283 2.9   0.5 0.00 0.00 68.1   6.2 105.3   4.3 17.3   3.1
Napa Basin 7/19/24 2330 65.2   1.2 57   3 49.6   0.1 1.1 S | 180 2.3   0.8 0.00 0.00 56.8   6.7 105.5   2.9 15.3   2.1
Lower Bohn 7/19/24 2330 68.0   5.2 47   7 46.9   0.2 0.1 S | 188 1.2   2.5 0.00 0.00 56.8   7.5 108.1   4.4 19.5   2.3
Upper Bohn-North 7/19/24 2330 72.4   0.9 40   2 47.0   2.1 1.3 SSE | 147 2.2   0.0 0.00 0.00 68.0   8.9 108.4   4.1 -
Upper Bohn-South 7/19/24 2330 75.0   2.7 - - 1.8 NNW | 329 3.5   2.6 0.00 0.00 68.3   7.8 108.0   3.1 -
Morgan Valley 7/19/24 2330 79.1   0.2 33   3 47.9   2.4 9.8 WNW | 298 13.7   4.6 0.00 0.00 76.3   5.9 99.2   3.2 25.8   0.1
Mine Pit North 7/19/24 2330 72.9   0.0 58   1 57.0   0.2 0.8 WSW | 238 2.2   1.1 - - 69.4   4.2 105.0   2.3 16.8   1.1
Mine Pit South 7/19/24 2330 79.8   0.4 31   5 46.7   4.1 1.7 NNE | 30 3.4   3.0 0.00 0.00 72.9   5.8 107.1   3.5 26.1   0.4
Cow Mountain 7/19/24 2330 76.0   2.7 - - 10.4 WNW | 286 18.6   3.9 0.00 0.00 72.2   4.3 84.3   1.4 34.8   0.0
Ukiah-SE (Ruddick) 7/19/24 2330 69.0   7.1 50   11 49.4   1.4 0.4 N | 352 1.6   0.4 0.00 0.00 49.7   0.8 97.5   1.2 20.8   0.7
Max     80.7 58 57.0 10.4 - 18.6 0.00 0.00 76.3 108.4 34.8
Avg     72.2 41 46.6 2.6 - 5.2 0.00 - - - -
Min     62.6 25 40.6 0.0 - 0.0 0.00 0.00 46.4 84.3 12.8

Yesterday's Daily Summary

38 Stations

Daily Data | America/Los_Angeles
as of 7/19/24 11:42 PM PDT
Station Date Daily Max Temp (°F) Daily Min Temp (°F) Daily Rain (In) Season Precip (In) Wind Spd (mph) Daily Max Wind (mph) Time of Max Wind Max Wind Dir (°) Dew Pt (°F) Max RH (%) Min RH (%) Daily Solar Rad (Cal/cm2) Daily ETo (in) 7 Day ETo (in) Chilling <=45F (hrs) Chilling <=45F Seas (hrs) Hrs 70-85F (hrs) Hrs > 95F (hrs) Powdery Mildew Stress (pts) Daily Leaf Wet (Hrs) GDDs (DL) Seas GDDs (DL) MinBV Day (V)
Upper Lake 7/18/24 98.0   4.8 51.0   4.5 0.00 0.00 2.2 17.8   1.8 1816 SW | 233 50.0   0.2 92 16 - - - 0.0 - 2.68 3.16 0 0.0 25.3 1,701 12.3
Scotts Valley 7/18/24 98.6   3.4 46.9   6.1 0.00 0.00 1.6 16.9   4.3 1636 WSW | 256 48.4   1.3 94 16 - - - 0.0 - 2.18 3.73 0 0.0 23.5 1,676 12.4
Scotts Valley-South (Bella Vista) 7/18/24 96.4   3.8 51.6   6.7 0.00 0.00 2.5 15.9   3.1 1451 NNW | 344 45.7   1.2 76 13 658 0.251 1.66 0.0 - 2.71 1.75 0 - 24.8 1,736 12.6
Kelseyville 7/18/24 97.7   4.6 52.4   6.6 0.00 0.00 2.8 19.3   5.5 1803 W | 271 48.7   0.5 82 15 724 0.273 1.82 0.0 - 3.48 3.14 0 0.0 25.3 1,731 12.6
Kelseyville Remote 7/18/24 99.1   4.3 53.7   5.9 0.00 0.00 - - - - 42.9   0.2 71 9 - - - 0.0 - 3.49 4.58 0 - 27.6 1,896 12.7
Kelseyville (Clark Drive) 7/18/24 99.7   4.8 50.6   6.2 0.00 0.00 - - - - - - - - - - 0.0 - 2.66 4.33 0 - 25.4 1,735 12.8
Kelsey Bench (Oaklea) 7/18/24 96.9   5.9 57.9   7.0 0.00 0.00 4.0 15.6   0.6 1642 W | 259 43.4   1.3 58 11 750 0.291 2.00 0.0 - 3.39 2.80 0 - 27.4 1,838 12.7
Smith Lane (Kelseyville-South) 7/18/24 99.3   5.1 51.3   6.6 0.00 0.00 2.6 15.5   0.6 1709 WSW | 256 44.3   2.4 - - - - - 0.0 - 2.59 4.88 0 0.0 26.0 1,800 12.7
Bell Hill-West 7/18/24 96.1   5.7 53.9   6.4 0.00 0.00 3.8 15.8   2.3 1641 WSW | 255 50.4   0.6 80 18 761 0.291 1.99 0.0 - 2.82 0.65 0 - 25.5 1,749 12.6
Wight Way (Adobe Creek) 7/18/24 99.5   5.0 49.6   5.6 0.00 0.00 2.9 15.6   2.4 1738 NW | 312 45.8   1.1 84 11 629 0.247 1.62 0.0 - 2.20 3.77 0 - 25.3 1,776 12.5
High Valley Ridgeline (Brassfield) 7/18/24 94.3   4.6 67.8   10.3 0.00 0.00 7.6 22.4   5.4 1757 SW | 233 46.5   0.5 59 14 720 0.331 2.11 0.0 - 5.72 0.00 70 - 28.6 1,902 12.6
Ridgeline Top (Brassfield) 7/18/24 97.2   5.4 65.9   8.7 - - - - - - - - - - - - 0.0 - 5.75 0.95 80 - 29.7 1,987 12.8
Ridgeline Low (Brassfield) 7/18/24 94.6   4.0 63.8   5.4 - - - - - - - - - - - - 0.0 - 6.15 0.00 100 - 29.7 1,952 12.8
Long Valley (Shannon) 7/18/24 101.5   4.9 49.3   5.6 0.00 0.00 2.8 15.7   1.0 1945 WNW | 289 - - 9 651 0.263 1.74 0.0 - 1.94 6.13 0 - 27.0 1,848 12.8
High Valley Winery 7/18/24 97.6   5.1 51.8   5.5 0.00 0.00 5.2 21.2   1.8 1859 WSW | 251 44.7   0.0 76 8 - - - 0.0 - 4.56 2.38 0 - 27.6 1,805 12.6
Round Mtn Rd. 7/18/24 97.3   5.6 55.5   6.9 - - - - - - - - - - - - 0.0 - 3.70 2.38 0 - 27.2 1,834 12.6
Circle O 7/18/24 95.3   4.7 53.9   4.9 - - - - - - - - - - - - 0.0 - 4.25 0.04 0 - 25.3 1,728 12.7
Robertsbridge Vineyards 7/18/24 100.6   5.3 51.3   6.4 - - - - - - 43.8   1.3 80 9 - - - 0.0 - 2.37 4.56 0 - 24.9 - 12.5
Urgency Vineyard 7/18/24 97.3   4.2 54.7   7.1 0.00 0.00 2.9 12.8   0.4 1538 WSW | 242 44.0   3.2 77 10 723 0.273 1.75 0.0 - 5.75 3.38 0 - 29.6 1,915 12.6
Red Hills (Beckstoffer) 7/18/24 97.7   5.5 53.3   5.7 0.00 0.00 - - - - 42.0   2.4 77 9 - - - 0.0 - 5.67 3.57 0 - 29.9 1,921 12.6
Winters (Shannon) 7/18/24 95.3   5.1 49.1   7.4 0.00 0.00 3.7 17.8   2.2 2215 WSW | 251 40.3   1.9 83 8 690 0.283 1.82 0.0 - 5.68 0.04 0 - 26.5 1,725 12.9
Secret Pond (Shannon) 7/18/24 94.4   4.8 55.6   10.8 0.00 0.00 4.9 17.2   3.1 0036 W | 274 40.8   2.4 70 8 665 0.295 1.71 0.0 - 6.96 0.00 50 - 28.9 1,812 12.9
Rolling Knolls (Shannon) 7/18/24 98.9   4.4 51.4   7.1 0.00 0.00 1.9 14.8   0.7 1917 WNW | 288 45.2   0.5 87 11 612 0.233 1.52 0.0 - 5.12 3.43 0 - 27.0 1,803 12.8
Lower Lake 7/18/24 98.4   5.0 60.1   8.8 0.00 0.00 4.6 19.6   4.1 1937 W | 270 45.7   0.5 60 10 - - - 0.0 - 5.11 4.19 0 - 30.6 2,025 12.6
Adamson Ranch 7/18/24 100.7   4.3 52.2   7.9 0.00 0.00 1.2 11.4   0.7 1745 W | 279 45.0   1.2 80 9 - - - 0.0 - 3.42 5.98 0 - 28.3 1,905 12.6
Middletown (Diamond D) 7/18/24 98.7   5.1 52.3   6.9 0.00 0.83 3.0 17.5   1.2 1431 SSW | 209 50.1   1.2 82 19 340 0.170 1.15 0.0 - 2.03 6.12 10 - 28.2 1,925 12.6
Middletown-West (Atlas VM) 7/18/24 100.8   8.0 49.1   8.2 0.00 0.00 4.7 19.2   1.4 1509 SSW | 194 46.7   0.6 80 32 - - - 0.0 - 4.77 7.35 0 - 29.1 1,905 12.5
Middletown-South 7/18/24 98.3   5.8 52.9   8.2 0.00 0.00 2.6 16.9   1.9 1636 SW | 218 45.7   0.7 72 16 - - - 0.0 - 1.98 4.86 0 0.0 27.7 1,866 12.5
Jim Davis (Langtry) 7/18/24 101.0   6.0 61.9   11.5 0.00 0.00 5.3 20.5   6.1 1654 WSW | 247 47.6   0.2 57 14 702 0.319 1.96 0.0 - 5.06 7.17 20 - 33.5 2,173 12.6
Napa Basin 7/18/24 102.6   5.8 50.1   5.1 0.00 0.00 2.8 17.3   2.3 1753 SW | 223 50.4 93 17 473 0.226 1.55 0.0 - 1.62 8.16 0 - 28.1 1,974 12.6
Lower Bohn 7/18/24 103.7   6.3 49.3   6.9 0.00 0.00 3.7 17.2   4.3 1817 W | 267 48.8   1.0 88 16 653 0.297 1.87 0.0 - 1.72 8.08 0 - 30.1 1,973 12.6
Upper Bohn-North 7/18/24 104.3   5.6 59.1   11.0 0.00 0.00 2.5 17.3   5.5 1746 WSW | 251 45.4   1.1 66 11 654 0.265 - 0.0 1,099 3.18 7.98 0 - 32.8 2,146 12.2
Upper Bohn-South 7/18/24 104.9   5.2 60.5   12.0 0.00 0.00 2.4 13.6   1.8 1547 ESE | 118 - 47 16 574 0.233 - 0.0 1,062 2.84 7.59 0 - 32.6 2,166 12.2
Morgan Valley 7/18/24 96.0   5.9 70.4   6.9 0.00 0.00 8.2 25.7   6.2 1848 W | 273 44.9   1.2 43 12 811 0.361 2.16 0.0 - 13.79 0.58 100 - 33.0 2,064 12.8
Mine Pit North 7/18/24 102.7   7.8 65.3   9.8 - - 3.6 17.9   1.5 1635 NNE | 29 45.0   3.5 68 8 - - - - - - - - - - - 12.4
Mine Pit South 7/18/24 103.6   9.4 67.2   10.7 0.00 0.00 6.4 26.4   9.7 1905 WNW | 290 42.9   1.2 54 8 - - - - - - - - - - - 12.3
Cow Mountain 7/18/24 82.9   4.8 68.0   5.9 0.00 0.00 12.2 34.8   10.1 1840 W | 268 - - - - - - 0.0 - - - - - - - 12.8
Ukiah-SE (Ruddick) 7/18/24 96.3   5.5 50.6   4.7 0.00 0.00 3.7 21.5   4.6 1709 N | 354 46.7   1.1 88 11 691 0.276 1.80 0.0 - 2.55 2.70 0 3.2 23.8 1,689 12.8
Max   104.9 70.4 0.00 0.83 12.2 34.8 - - 50.4 94 32 811 0.361 2.16 0.0 - 13.79 8.16 - 3.2 33.5 - 12.9
Avg   - - - - 3.9 - - - 45.7 - - - - - 0.0 - 4.00 3.73 - - 27.9 - -
Min   82.9 46.9 0.00 0.00 1.2 11.4 - - 40.3 43 8 340 0.170 1.15 0.0 - 1.62 0.00 - 0.0 23.5 - 12.2